GIA176 WIII-WIBB
Flight info
| Callsign | GIA176 |
|---|---|
| Flight time | 1h 25m |
| Altitude | 38000 |
| Route | GOMEL T10 OVSET |
| Aircraft | B738/M-SDE2E3FGHIRWXY/LB1 |
Departure
| Time | 2026-05-04 11:53 |
|---|---|
| Airport | Soekarno-Hatta International Airport (WIII) |
Arrival
| Time | 2026-05-04 13:18 |
|---|---|
| Airport | Sultan Syarif Kasim II International Airport / Roesmin Nurjadin AFB (WIBB) |
| Time | Latitude | Longitude | Altitude | Speed | Heading |
|---|---|---|---|---|---|
| 2026-05-04 11:28 | -6.11600 | 106.66894 | 48 ft | 0 kts | 135° |
| 2026-05-04 11:44 | -6.11600 | 106.66893 | 48 ft | 0 kts | 135° |
| 2026-05-04 11:44 | -6.11589 | 106.66884 | 48 ft | 2 kts | 148° |
| 2026-05-04 11:44 | -6.11576 | 106.66878 | 48 ft | 2 kts | 159° |
| 2026-05-04 11:45 | -6.11562 | 106.66872 | 48 ft | 2 kts | 158° |
| 2026-05-04 11:45 | -6.11549 | 106.66866 | 48 ft | 2 kts | 158° |
| 2026-05-04 11:45 | -6.11535 | 106.66861 | 48 ft | 2 kts | 158° |
| 2026-05-04 11:45 | -6.11522 | 106.66856 | 48 ft | 1 kts | 158° |
| 2026-05-04 11:46 | -6.11512 | 106.66852 | 48 ft | 2 kts | 143° |
| 2026-05-04 11:46 | -6.11504 | 106.66840 | 48 ft | 2 kts | 108° |
| 2026-05-04 11:46 | -6.11502 | 106.66825 | 48 ft | 1 kts | 75° |
| 2026-05-04 11:46 | -6.11505 | 106.66819 | 48 ft | 1 kts | 63° |
| 2026-05-04 11:47 | -6.11506 | 106.66816 | 48 ft | 0 kts | 67° |
| 2026-05-04 11:48 | -6.11504 | 106.66821 | 48 ft | 3 kts | 67° |
| 2026-05-04 11:48 | -6.11487 | 106.66864 | 48 ft | 9 kts | 69° |
| 2026-05-04 11:49 | -6.11461 | 106.66924 | 48 ft | 7 kts | 54° |
| 2026-05-04 11:49 | -6.11408 | 106.66943 | 48 ft | 9 kts | 345° |
| 2026-05-04 11:49 | -6.11342 | 106.66917 | 48 ft | 11 kts | 339° |
| 2026-05-04 11:49 | -6.11263 | 106.66885 | 48 ft | 13 kts | 334° |
| 2026-05-04 11:50 | -6.11171 | 106.66846 | 48 ft | 13 kts | 340° |
| 2026-05-04 11:50 | -6.11113 | 106.66855 | 48 ft | 7 kts | 63° |
| 2026-05-04 11:50 | -6.11098 | 106.66894 | 48 ft | 4 kts | 66° |
| 2026-05-04 11:50 | -6.11085 | 106.66921 | 48 ft | 4 kts | 63° |
| 2026-05-04 11:51 | -6.11071 | 106.66944 | 48 ft | 3 kts | 50° |
| 2026-05-04 11:51 | -6.11050 | 106.66962 | 48 ft | 4 kts | 34° |
| 2026-05-04 11:51 | -6.11011 | 106.66979 | 48 ft | 6 kts | 5° |
| 2026-05-04 11:51 | -6.10968 | 106.66953 | 48 ft | 8 kts | 313° |
| 2026-05-04 11:52 | -6.10926 | 106.66906 | 48 ft | 8 kts | 330° |
| 2026-05-04 11:52 | -6.10908 | 106.66873 | 48 ft | 5 kts | 248° |
| 2026-05-04 11:52 | -6.10968 | 106.66728 | 48 ft | 62 kts | 248° |
| 2026-05-04 11:52 | -6.11242 | 106.66045 | 49 ft | 147 kts | 246° |
| 2026-05-04 11:53 | -6.11702 | 106.64915 | 385 ft | 190 kts | 246° |
| 2026-05-04 11:53 | -6.12176 | 106.63737 | 1611 ft | 182 kts | 251° |
| 2026-05-04 11:53 | -6.12245 | 106.62489 | 2281 ft | 194 kts | 284° |
| 2026-05-04 11:53 | -6.11722 | 106.61169 | 2813 ft | 213 kts | 291° |
| 2026-05-04 11:55 | -6.07886 | 106.49013 | 8911 ft | 290 kts | 304° |
| 2026-05-04 11:55 | -6.06461 | 106.47619 | 9907 ft | 292 kts | 324° |
| 2026-05-04 11:56 | -6.04798 | 106.46445 | 10714 ft | 302 kts | 324° |
| 2026-05-04 11:56 | -6.03038 | 106.45155 | 11164 ft | 323 kts | 324° |
| 2026-05-04 11:56 | -6.01236 | 106.43824 | 12114 ft | 326 kts | 324° |
| 2026-05-04 11:56 | -5.99395 | 106.42469 | 12825 ft | 335 kts | 324° |
| 2026-05-04 11:57 | -5.97512 | 106.41083 | 13741 ft | 338 kts | 324° |
| 2026-05-04 11:57 | -5.95613 | 106.39684 | 14532 ft | 343 kts | 324° |
| 2026-05-04 11:57 | -5.93689 | 106.38268 | 15352 ft | 346 kts | 324° |
| 2026-05-04 11:57 | -5.91745 | 106.36837 | 16121 ft | 351 kts | 324° |
| 2026-05-04 11:58 | -5.89787 | 106.35396 | 16873 ft | 355 kts | 324° |
| 2026-05-04 11:58 | -5.87787 | 106.33923 | 17605 ft | 359 kts | 324° |
| 2026-05-04 11:58 | -5.85777 | 106.32444 | 18313 ft | 362 kts | 324° |
| 2026-05-04 11:58 | -5.83746 | 106.30950 | 18995 ft | 366 kts | 324° |
| 2026-05-04 11:59 | -5.81685 | 106.29433 | 19666 ft | 370 kts | 324° |
| 2026-05-04 11:59 | -5.79597 | 106.27898 | 20004 ft | 379 kts | 324° |
| 2026-05-04 11:59 | -5.77484 | 106.26344 | 19988 ft | 375 kts | 324° |
| 2026-05-04 11:59 | -5.75393 | 106.24805 | 19992 ft | 371 kts | 324° |
| 2026-05-04 12:00 | -5.73298 | 106.23264 | 19993 ft | 371 kts | 324° |
| 2026-05-04 12:00 | -5.71228 | 106.21742 | 19994 ft | 372 kts | 324° |
| 2026-05-04 12:00 | -5.69164 | 106.20223 | 19995 ft | 372 kts | 324° |
| 2026-05-04 12:00 | -5.67074 | 106.18687 | 19994 ft | 372 kts | 324° |
| 2026-05-04 12:01 | -5.64995 | 106.17158 | 19993 ft | 372 kts | 324° |
| 2026-05-04 12:01 | -5.62892 | 106.15612 | 19994 ft | 372 kts | 324° |
| 2026-05-04 12:02 | -5.50394 | 106.06426 | 19993 ft | 372 kts | 324° |
| 2026-05-04 12:03 | -5.48309 | 106.04894 | 19993 ft | 372 kts | 324° |
| 2026-05-04 12:03 | -5.46216 | 106.03355 | 19993 ft | 372 kts | 324° |
| 2026-05-04 12:03 | -5.44142 | 106.01832 | 19993 ft | 372 kts | 324° |
| 2026-05-04 12:03 | -5.42069 | 106.00309 | 19993 ft | 372 kts | 324° |
| 2026-05-04 12:04 | -5.39973 | 105.98770 | 19993 ft | 372 kts | 324° |
| 2026-05-04 12:04 | -5.37888 | 105.97239 | 19993 ft | 372 kts | 324° |
| 2026-05-04 12:04 | -5.35810 | 105.95713 | 19993 ft | 372 kts | 324° |
| 2026-05-04 12:04 | -5.33729 | 105.94184 | 19993 ft | 372 kts | 324° |
| 2026-05-04 12:05 | -5.31644 | 105.92653 | 19993 ft | 372 kts | 324° |
| 2026-05-04 12:05 | -5.29541 | 105.91110 | 19993 ft | 372 kts | 324° |
| 2026-05-04 12:05 | -5.27473 | 105.89592 | 19993 ft | 372 kts | 324° |
| 2026-05-04 12:05 | -5.25389 | 105.88062 | 19993 ft | 372 kts | 324° |
| 2026-05-04 12:06 | -5.23318 | 105.86541 | 19993 ft | 372 kts | 324° |
| 2026-05-04 12:06 | -5.21226 | 105.85006 | 19993 ft | 372 kts | 324° |
| 2026-05-04 12:06 | -5.19151 | 105.83484 | 19993 ft | 372 kts | 324° |
| 2026-05-04 12:06 | -5.17024 | 105.81948 | 20266 ft | 379 kts | 326° |
| 2026-05-04 12:07 | -5.14885 | 105.80432 | 21142 ft | 377 kts | 326° |
| 2026-05-04 12:07 | -5.12725 | 105.78898 | 21657 ft | 384 kts | 326° |
| 2026-05-04 12:07 | -5.10543 | 105.77347 | 22363 ft | 386 kts | 326° |
| 2026-05-04 12:07 | -5.08353 | 105.75790 | 22908 ft | 391 kts | 326° |
| 2026-05-04 12:08 | -5.06114 | 105.74200 | 23500 ft | 395 kts | 326° |
| 2026-05-04 12:08 | -5.03888 | 105.72617 | 24054 ft | 399 kts | 325° |
| 2026-05-04 12:08 | -5.01595 | 105.70987 | 24601 ft | 403 kts | 325° |
| 2026-05-04 12:08 | -4.99304 | 105.69359 | 25135 ft | 407 kts | 325° |
| 2026-05-04 12:09 | -4.97016 | 105.67732 | 25646 ft | 410 kts | 325° |
| 2026-05-04 12:09 | -4.94654 | 105.66052 | 26161 ft | 413 kts | 325° |
| 2026-05-04 12:09 | -4.92305 | 105.64383 | 26655 ft | 416 kts | 325° |
| 2026-05-04 12:09 | -4.89956 | 105.62712 | 27133 ft | 419 kts | 325° |
| 2026-05-04 12:10 | -4.87577 | 105.61021 | 27595 ft | 422 kts | 325° |
| 2026-05-04 12:10 | -4.85180 | 105.59318 | 28045 ft | 425 kts | 325° |
| 2026-05-04 12:10 | -4.82769 | 105.57604 | 28484 ft | 428 kts | 325° |
| 2026-05-04 12:10 | -4.80345 | 105.55882 | 28910 ft | 431 kts | 325° |
| 2026-05-04 12:11 | -4.77897 | 105.54143 | 29324 ft | 433 kts | 325° |
| 2026-05-04 12:11 | -4.75442 | 105.52399 | 29723 ft | 436 kts | 325° |
| 2026-05-04 12:11 | -4.72961 | 105.50637 | 30116 ft | 438 kts | 325° |
| 2026-05-04 12:11 | -4.70481 | 105.48875 | 30492 ft | 441 kts | 325° |
| 2026-05-04 12:12 | -4.67972 | 105.47093 | 30860 ft | 443 kts | 325° |
| 2026-05-04 12:12 | -4.65451 | 105.45303 | 31221 ft | 446 kts | 326° |
| 2026-05-04 12:12 | -4.62917 | 105.43504 | 31564 ft | 448 kts | 326° |
| 2026-05-04 12:12 | -4.60398 | 105.41715 | 31901 ft | 450 kts | 326° |
| 2026-05-04 12:13 | -4.57825 | 105.39889 | 32230 ft | 453 kts | 326° |
| 2026-05-04 12:14 | -4.39673 | 105.27006 | 34290 ft | 465 kts | 326° |
| 2026-05-04 12:15 | -4.37039 | 105.25137 | 34594 ft | 466 kts | 326° |
| 2026-05-04 12:15 | -4.34406 | 105.23269 | 34908 ft | 466 kts | 326° |
| 2026-05-04 12:15 | -4.31755 | 105.21388 | 35225 ft | 466 kts | 326° |
| 2026-05-04 12:15 | -4.29127 | 105.19524 | 35545 ft | 465 kts | 326° |
| 2026-05-04 12:16 | -4.26504 | 105.17664 | 35862 ft | 465 kts | 326° |
| 2026-05-04 12:16 | -4.23872 | 105.15797 | 36180 ft | 464 kts | 326° |
| 2026-05-04 12:16 | -4.21249 | 105.13937 | 36473 ft | 464 kts | 326° |
| 2026-05-04 12:16 | -4.18604 | 105.12061 | 36762 ft | 464 kts | 326° |
| 2026-05-04 12:17 | -4.15980 | 105.10201 | 37045 ft | 464 kts | 326° |
| 2026-05-04 12:17 | -4.13352 | 105.08337 | 37323 ft | 464 kts | 326° |
| 2026-05-04 12:17 | -4.10735 | 105.06465 | 37593 ft | 464 kts | 324° |
| 2026-05-04 12:17 | -4.08260 | 105.04408 | 37823 ft | 465 kts | 319° |
| 2026-05-04 12:18 | -4.03579 | 104.99987 | 37854 ft | 462 kts | 318° |
| 2026-05-04 12:18 | -3.98969 | 104.95660 | 37858 ft | 454 kts | 318° |
| 2026-05-04 12:19 | -3.94344 | 104.91348 | 37986 ft | 450 kts | 317° |
| 2026-05-04 12:19 | -3.89791 | 104.87090 | 38000 ft | 452 kts | 317° |
| 2026-05-04 12:20 | -3.85212 | 104.82790 | 37999 ft | 452 kts | 317° |
| 2026-05-04 12:20 | -3.80629 | 104.78495 | 38000 ft | 451 kts | 317° |
| 2026-05-04 12:21 | -3.76063 | 104.74220 | 38000 ft | 451 kts | 317° |
| 2026-05-04 12:21 | -3.71490 | 104.69942 | 38000 ft | 451 kts | 317° |
| 2026-05-04 12:22 | -3.66918 | 104.65665 | 38000 ft | 451 kts | 317° |
| 2026-05-04 12:22 | -3.62320 | 104.61366 | 37999 ft | 451 kts | 317° |
| 2026-05-04 12:23 | -3.57747 | 104.57091 | 38000 ft | 451 kts | 317° |
| 2026-05-04 12:23 | -3.53165 | 104.52809 | 38000 ft | 451 kts | 317° |
| 2026-05-04 12:24 | -3.48575 | 104.48520 | 38000 ft | 451 kts | 317° |
| 2026-05-04 12:24 | -3.44000 | 104.44245 | 38000 ft | 451 kts | 317° |
| 2026-05-04 12:25 | -3.39449 | 104.39994 | 38000 ft | 451 kts | 317° |
| 2026-05-04 12:25 | -3.34840 | 104.35689 | 38000 ft | 451 kts | 317° |
| 2026-05-04 12:26 | -3.30281 | 104.31432 | 38000 ft | 451 kts | 317° |
| 2026-05-04 12:26 | -3.25680 | 104.27135 | 38000 ft | 451 kts | 317° |
| 2026-05-04 12:27 | -3.21113 | 104.22871 | 38000 ft | 451 kts | 317° |
| 2026-05-04 12:27 | -3.16541 | 104.18604 | 38000 ft | 451 kts | 317° |
| 2026-05-04 12:28 | -3.11938 | 104.14307 | 38000 ft | 451 kts | 317° |
| 2026-05-04 12:28 | -3.07362 | 104.10036 | 38000 ft | 451 kts | 317° |
| 2026-05-04 12:29 | -3.02787 | 104.05767 | 38000 ft | 451 kts | 317° |
| 2026-05-04 12:29 | -2.98231 | 104.01516 | 38000 ft | 451 kts | 317° |
| 2026-05-04 12:30 | -2.93623 | 103.97218 | 38000 ft | 451 kts | 317° |
| 2026-05-04 12:30 | -2.89052 | 103.92953 | 38000 ft | 451 kts | 317° |
| 2026-05-04 12:31 | -2.84491 | 103.88699 | 38000 ft | 451 kts | 317° |
| 2026-05-04 12:31 | -2.79892 | 103.84410 | 38000 ft | 451 kts | 317° |
| 2026-05-04 12:32 | -2.73022 | 103.78004 | 38000 ft | 451 kts | 317° |
| 2026-05-04 12:33 | -2.68424 | 103.73717 | 38000 ft | 451 kts | 317° |
| 2026-05-04 12:33 | -2.63875 | 103.69476 | 38000 ft | 451 kts | 317° |
| 2026-05-04 12:34 | -2.59288 | 103.65200 | 38000 ft | 451 kts | 317° |
| 2026-05-04 12:34 | -2.54689 | 103.60914 | 38000 ft | 451 kts | 317° |
| 2026-05-04 12:35 | -2.50103 | 103.56640 | 38000 ft | 451 kts | 317° |
| 2026-05-04 12:35 | -2.45548 | 103.52396 | 38000 ft | 451 kts | 317° |
| 2026-05-04 12:36 | -2.40965 | 103.48125 | 38000 ft | 451 kts | 317° |
| 2026-05-04 12:36 | -2.36379 | 103.43853 | 38000 ft | 451 kts | 317° |
| 2026-05-04 12:37 | -2.31767 | 103.39555 | 38000 ft | 451 kts | 317° |
| 2026-05-04 12:37 | -2.27211 | 103.35297 | 38000 ft | 451 kts | 317° |
| 2026-05-04 12:38 | -2.22634 | 103.31022 | 38000 ft | 451 kts | 317° |
| 2026-05-04 12:38 | -2.18033 | 103.26723 | 38000 ft | 451 kts | 317° |
| 2026-05-04 12:39 | -2.13461 | 103.22452 | 38000 ft | 451 kts | 317° |
| 2026-05-04 12:39 | -2.08878 | 103.18173 | 38000 ft | 451 kts | 317° |
| 2026-05-04 12:40 | -2.04312 | 103.13908 | 38000 ft | 451 kts | 317° |
| 2026-05-04 12:40 | -1.99760 | 103.09657 | 38000 ft | 451 kts | 317° |
| 2026-05-04 12:41 | -1.95155 | 103.05358 | 38000 ft | 451 kts | 317° |
| 2026-05-04 12:41 | -1.90604 | 103.01109 | 38000 ft | 451 kts | 317° |
| 2026-05-04 12:42 | -1.86002 | 102.96813 | 38000 ft | 451 kts | 317° |
| 2026-05-04 12:42 | -1.81441 | 102.92556 | 38000 ft | 451 kts | 317° |
| 2026-05-04 12:43 | -1.76841 | 102.88262 | 38000 ft | 451 kts | 317° |
| 2026-05-04 12:43 | -1.72291 | 102.84015 | 38000 ft | 451 kts | 317° |
| 2026-05-04 12:44 | -1.67713 | 102.79743 | 38000 ft | 451 kts | 317° |
| 2026-05-04 12:44 | -1.63129 | 102.75465 | 38000 ft | 451 kts | 317° |
| 2026-05-04 12:45 | -1.58456 | 102.71305 | 37997 ft | 451 kts | 323° |
| 2026-05-04 12:45 | -1.52979 | 102.68283 | 37999 ft | 451 kts | 341° |
| 2026-05-04 12:46 | -1.47001 | 102.66496 | 38001 ft | 452 kts | 343° |
| 2026-05-04 12:46 | -1.40991 | 102.64719 | 37999 ft | 452 kts | 343° |
| 2026-05-04 12:47 | -1.34990 | 102.62945 | 37999 ft | 451 kts | 343° |
| 2026-05-04 12:47 | -1.28973 | 102.61169 | 38000 ft | 451 kts | 343° |
| 2026-05-04 12:48 | -1.22978 | 102.59401 | 37999 ft | 451 kts | 343° |
| 2026-05-04 12:48 | -1.16991 | 102.57636 | 37483 ft | 446 kts | 343° |
| 2026-05-04 12:48 | -1.14056 | 102.56770 | 36822 ft | 444 kts | 343° |
| 2026-05-04 12:49 | -1.11108 | 102.55901 | 36134 ft | 442 kts | 343° |
| 2026-05-04 12:49 | -1.08194 | 102.55043 | 35404 ft | 443 kts | 343° |
| 2026-05-04 12:49 | -1.05243 | 102.54173 | 34638 ft | 447 kts | 343° |
| 2026-05-04 12:49 | -1.02258 | 102.53294 | 33831 ft | 450 kts | 343° |
| 2026-05-04 12:50 | -0.99257 | 102.52409 | 32998 ft | 450 kts | 343° |
| 2026-05-04 12:50 | -0.96266 | 102.51528 | 32147 ft | 450 kts | 343° |
| 2026-05-04 12:50 | -0.93261 | 102.50642 | 31271 ft | 454 kts | 343° |
| 2026-05-04 12:50 | -0.90236 | 102.49751 | 30362 ft | 457 kts | 343° |
| 2026-05-04 12:51 | -0.87218 | 102.48862 | 29424 ft | 457 kts | 343° |
| 2026-05-04 12:51 | -0.84180 | 102.47967 | 28614 ft | 452 kts | 343° |
| 2026-05-04 12:51 | -0.81226 | 102.47097 | 27984 ft | 444 kts | 343° |
| 2026-05-04 12:51 | -0.78261 | 102.46223 | 27301 ft | 438 kts | 343° |
| 2026-05-04 12:52 | -0.75383 | 102.45376 | 26635 ft | 439 kts | 343° |
| 2026-05-04 12:52 | -0.72482 | 102.44521 | 25950 ft | 435 kts | 343° |
| 2026-05-04 12:52 | -0.69599 | 102.43671 | 25265 ft | 429 kts | 343° |
| 2026-05-04 12:52 | -0.66761 | 102.42835 | 24589 ft | 422 kts | 343° |
| 2026-05-04 12:53 | -0.63987 | 102.42018 | 23927 ft | 416 kts | 343° |
| 2026-05-04 12:53 | -0.61213 | 102.41200 | 23260 ft | 414 kts | 343° |
| 2026-05-04 12:53 | -0.58533 | 102.40254 | 22602 ft | 414 kts | 337° |
| 2026-05-04 12:53 | -0.55981 | 102.38985 | 22049 ft | 406 kts | 329° |
| 2026-05-04 12:54 | -0.53702 | 102.37362 | 21997 ft | 404 kts | 319° |
| 2026-05-04 12:54 | -0.51620 | 102.35429 | 22004 ft | 411 kts | 316° |
| 2026-05-04 12:54 | -0.49568 | 102.33431 | 21995 ft | 413 kts | 316° |
| 2026-05-04 12:54 | -0.47505 | 102.31441 | 21995 ft | 411 kts | 316° |
| 2026-05-04 12:55 | -0.45492 | 102.29499 | 21587 ft | 400 kts | 316° |
| 2026-05-04 12:55 | -0.43499 | 102.27573 | 20969 ft | 405 kts | 316° |
| 2026-05-04 12:55 | -0.41503 | 102.25641 | 20308 ft | 399 kts | 316° |
| 2026-05-04 12:55 | -0.39515 | 102.23716 | 19647 ft | 393 kts | 316° |
| 2026-05-04 12:56 | -0.37583 | 102.21844 | 19000 ft | 388 kts | 316° |
| 2026-05-04 12:56 | -0.35667 | 102.19987 | 18354 ft | 382 kts | 316° |
| 2026-05-04 12:56 | -0.33780 | 102.18157 | 17719 ft | 383 kts | 316° |
| 2026-05-04 12:56 | -0.31858 | 102.16293 | 17063 ft | 381 kts | 316° |
| 2026-05-04 12:57 | -0.29982 | 102.14474 | 16420 ft | 374 kts | 316° |
| 2026-05-04 12:57 | -0.28147 | 102.12695 | 16006 ft | 369 kts | 316° |
| 2026-05-04 12:57 | -0.26282 | 102.10889 | 16007 ft | 374 kts | 316° |
| 2026-05-04 12:57 | -0.24419 | 102.09088 | 16002 ft | 377 kts | 316° |
| 2026-05-04 12:58 | -0.22531 | 102.07261 | 15958 ft | 378 kts | 316° |
| 2026-05-04 12:58 | -0.20656 | 102.05447 | 15643 ft | 374 kts | 316° |
| 2026-05-04 12:58 | -0.18792 | 102.03643 | 15073 ft | 367 kts | 316° |
| 2026-05-04 12:58 | -0.16969 | 102.01879 | 14464 ft | 361 kts | 316° |
| 2026-05-04 12:59 | -0.15190 | 102.00158 | 13856 ft | 360 kts | 316° |
| 2026-05-04 12:59 | -0.13389 | 101.98415 | 13237 ft | 360 kts | 316° |
| 2026-05-04 12:59 | -0.11502 | 101.96802 | 12824 ft | 353 kts | 325° |
| 2026-05-04 12:59 | -0.09429 | 101.95512 | 12593 ft | 358 kts | 329° |
| 2026-05-04 13:00 | -0.07294 | 101.94215 | 12337 ft | 358 kts | 328° |
| 2026-05-04 13:00 | -0.05199 | 101.92895 | 12086 ft | 356 kts | 327° |
| 2026-05-04 13:00 | -0.03097 | 101.91557 | 11832 ft | 354 kts | 327° |
| 2026-05-04 13:00 | -0.01041 | 101.90244 | 11581 ft | 353 kts | 327° |
| 2026-05-04 13:01 | 0.01009 | 101.88930 | 11332 ft | 352 kts | 327° |
| 2026-05-04 13:01 | 0.03073 | 101.87605 | 11080 ft | 351 kts | 327° |
| 2026-05-04 13:01 | 0.05098 | 101.86302 | 10832 ft | 349 kts | 327° |
| 2026-05-04 13:01 | 0.07135 | 101.84991 | 10581 ft | 348 kts | 327° |
| 2026-05-04 13:02 | 0.09162 | 101.83687 | 10331 ft | 347 kts | 327° |
| 2026-05-04 13:02 | 0.11191 | 101.82380 | 10079 ft | 345 kts | 327° |
| 2026-05-04 13:02 | 0.13162 | 101.81110 | 9820 ft | 332 kts | 327° |
| 2026-05-04 13:02 | 0.15074 | 101.79878 | 9566 ft | 318 kts | 327° |
| 2026-05-04 13:03 | 0.16892 | 101.78708 | 9316 ft | 306 kts | 327° |
| 2026-05-04 13:03 | 0.18647 | 101.77576 | 9065 ft | 295 kts | 327° |
| 2026-05-04 13:03 | 0.20348 | 101.76481 | 8814 ft | 286 kts | 327° |
| 2026-05-04 13:03 | 0.21973 | 101.75434 | 8566 ft | 278 kts | 327° |
| 2026-05-04 13:04 | 0.23578 | 101.74400 | 8315 ft | 271 kts | 327° |
| 2026-05-04 13:04 | 0.25159 | 101.73381 | 8065 ft | 269 kts | 327° |
| 2026-05-04 13:04 | 0.26710 | 101.72382 | 7817 ft | 268 kts | 327° |
| 2026-05-04 13:04 | 0.28279 | 101.71371 | 7567 ft | 267 kts | 327° |
| 2026-05-04 13:05 | 0.29838 | 101.70367 | 7318 ft | 267 kts | 327° |
| 2026-05-04 13:05 | 0.31392 | 101.69366 | 7068 ft | 266 kts | 327° |
| 2026-05-04 13:05 | 0.32937 | 101.68370 | 6819 ft | 265 kts | 327° |
| 2026-05-04 13:05 | 0.34489 | 101.67371 | 6567 ft | 264 kts | 327° |
| 2026-05-04 13:06 | 0.36013 | 101.66389 | 6319 ft | 263 kts | 327° |
| 2026-05-04 13:06 | 0.37546 | 101.65402 | 6069 ft | 262 kts | 327° |
| 2026-05-04 13:06 | 0.39077 | 101.64415 | 5818 ft | 261 kts | 327° |
| 2026-05-04 13:06 | 0.40585 | 101.63444 | 5570 ft | 260 kts | 327° |
| 2026-05-04 13:07 | 0.42102 | 101.62466 | 5319 ft | 259 kts | 327° |
| 2026-05-04 13:07 | 0.43612 | 101.61493 | 5069 ft | 258 kts | 327° |
| 2026-05-04 13:07 | 0.45105 | 101.60531 | 4820 ft | 257 kts | 327° |
| 2026-05-04 13:07 | 0.46617 | 101.59557 | 4568 ft | 256 kts | 327° |
| 2026-05-04 13:08 | 0.48092 | 101.58607 | 4321 ft | 255 kts | 327° |
| 2026-05-04 13:08 | 0.49586 | 101.57644 | 4069 ft | 254 kts | 327° |
| 2026-05-04 13:08 | 0.51070 | 101.56689 | 3819 ft | 253 kts | 327° |
| 2026-05-04 13:08 | 0.52538 | 101.55743 | 3570 ft | 252 kts | 327° |
| 2026-05-04 13:09 | 0.54014 | 101.54791 | 3319 ft | 251 kts | 327° |
| 2026-05-04 13:09 | 0.55476 | 101.53849 | 3069 ft | 251 kts | 327° |
| 2026-05-04 13:09 | 0.56931 | 101.52912 | 2820 ft | 250 kts | 327° |
| 2026-05-04 13:09 | 0.58400 | 101.51965 | 2568 ft | 249 kts | 327° |
| 2026-05-04 13:10 | 0.59844 | 101.51035 | 2322 ft | 248 kts | 327° |
| 2026-05-04 13:10 | 0.61277 | 101.50112 | 2231 ft | 244 kts | 327° |
| 2026-05-04 13:10 | 0.62667 | 101.49216 | 2233 ft | 243 kts | 327° |
| 2026-05-04 13:11 | 0.63477 | 101.48695 | 2231 ft | 237 kts | 327° |
| 2026-05-04 13:11 | 0.64819 | 101.47829 | 2246 ft | 219 kts | 327° |
| 2026-05-04 13:11 | 0.66049 | 101.47037 | 2220 ft | 201 kts | 327° |
| 2026-05-04 13:11 | 0.67049 | 101.46221 | 2233 ft | 174 kts | 307° |
| 2026-05-04 13:12 | 0.67512 | 101.45181 | 2223 ft | 163 kts | 279° |
| 2026-05-04 13:12 | 0.67456 | 101.44042 | 2240 ft | 165 kts | 253° |
| 2026-05-04 13:12 | 0.66913 | 101.43055 | 2237 ft | 165 kts | 227° |
| 2026-05-04 13:12 | 0.65967 | 101.42400 | 2235 ft | 165 kts | 200° |
| 2026-05-04 13:13 | 0.64843 | 101.42236 | 2236 ft | 165 kts | 174° |
| 2026-05-04 13:13 | 0.63780 | 101.42619 | 2244 ft | 163 kts | 144° |
| 2026-05-04 13:13 | 0.62918 | 101.43304 | 2247 ft | 154 kts | 142° |
| 2026-05-04 13:13 | 0.62126 | 101.43906 | 2240 ft | 138 kts | 147° |
| 2026-05-04 13:14 | 0.61251 | 101.44331 | 2234 ft | 139 kts | 160° |
| 2026-05-04 13:14 | 0.60317 | 101.44589 | 2233 ft | 139 kts | 169° |
| 2026-05-04 13:14 | 0.59365 | 101.44701 | 2234 ft | 139 kts | 176° |
| 2026-05-04 13:14 | 0.58391 | 101.44738 | 2234 ft | 139 kts | 179° |
| 2026-05-04 13:15 | 0.57424 | 101.44743 | 2196 ft | 141 kts | 180° |
| 2026-05-04 13:15 | 0.56453 | 101.44731 | 2024 ft | 140 kts | 181° |
| 2026-05-04 13:15 | 0.55476 | 101.44711 | 1853 ft | 139 kts | 181° |
| 2026-05-04 13:15 | 0.54516 | 101.44688 | 1677 ft | 138 kts | 181° |
| 2026-05-04 13:16 | 0.53559 | 101.44662 | 1500 ft | 138 kts | 181° |
| 2026-05-04 13:16 | 0.52596 | 101.44636 | 1323 ft | 138 kts | 181° |
| 2026-05-04 13:16 | 0.51643 | 101.44609 | 1147 ft | 137 kts | 181° |
| 2026-05-04 13:16 | 0.50696 | 101.44582 | 972 ft | 137 kts | 181° |
| 2026-05-04 13:17 | 0.49754 | 101.44555 | 799 ft | 137 kts | 182° |
| 2026-05-04 13:17 | 0.48797 | 101.44527 | 621 ft | 137 kts | 182° |
| 2026-05-04 13:17 | 0.47842 | 101.44508 | 341 ft | 139 kts | 182° |
| 2026-05-04 13:17 | 0.46893 | 101.44477 | 148 ft | 132 kts | 183° |
| 2026-05-04 13:18 | 0.46164 | 101.44452 | 140 ft | 65 kts | 181° |
| 2026-05-04 13:18 | 0.45854 | 101.44447 | 134 ft | 39 kts | 183° |
| 2026-05-04 13:18 | 0.45596 | 101.44439 | 129 ft | 22 kts | 183° |
| 2026-05-04 13:18 | 0.45503 | 101.44437 | 127 ft | 14 kts | 180° |
| 2026-05-04 13:19 | 0.45434 | 101.44436 | 126 ft | 13 kts | 181° |
| 2026-05-04 13:19 | 0.45345 | 101.44418 | 125 ft | 12 kts | 223° |
| 2026-05-04 13:19 | 0.45338 | 101.44376 | 126 ft | 2 kts | 287° |
| 2026-05-04 13:19 | 0.45339 | 101.44373 | 126 ft | 0 kts | 286° |